Terminal Aerodrome Forecast
Issued by NWS Portland, OR

Home | Current Version | Previous Version | Text Only | Print | Product List | Glossary On
Versions: 1 2 3 4 5 6 7 8 9 10 11 12 13 14 15 16
000
FTUS46 KPQR 090259 AAA
TAFHIO
TAF AMD
KHIO 090259Z 0903/0924 09013KT 3SM -FZRA BR BKN015 OVC025
     FM090400 10010KT 2SM -FZRA BR SCT009 BKN015 OVC025
     FM090800 12007KT 4SM -FZRA BR BKN009 OVC015
     FM091200 19004KT 2SM BR VCSH BKN009 OVC015=

USA.gov is the U.S. government's official web portal to all federal, state and local government web resources and services.